Flight Track Log - Related Links

Times and Time Zones

All times are in EDT time to prevent confusion due to time zone crossing. See the RPA3228 flight status page for this flight to view local times or setup timezone preferences in your user account.

Time Position Orientation Groundspeed Altitude Reporting Facility
EDT Latitude Longitude Course Direction KTS MPH feet Rate Location/Type
Fri 10:27:50 AM 38.8667 -77.0500 339° North 147 169 1,000  Level Potomac TRACON
Fri 10:28:51 AM 38.9000 -77.0833 322° Northwest 210 242 2,900 2,452 Climbing Potomac TRACON
Fri 10:29:45 AM 38.9500 -77.1500 314° West 267 307 5,700 3,548 Climbing Potomac TRACON
Fri 10:30:00 AM 39.1550 -77.1560 337° Northwest  Level Estimated
Fri 10:30:46 AM 39.0000 -77.2167 314° West 266 306 9,700  Level Potomac TRACON
Fri 10:31:00 AM 39.2560 -77.1956 333° Northwest  Level Estimated
Fri 10:31:46 AM 39.0333 -77.3167 293° West 299 344 12,300  Level Potomac TRACON
Fri 10:32:00 AM 39.3570 -77.2354 339° North  Level Estimated
Fri 10:32:46 AM 39.0500 -77.4333 280° West 341 392 15,300  Level Potomac TRACON
Fri 10:33:00 AM 39.4580 -77.2752 339° North  Level Estimated
Fri 10:34:44 AM 39.2219 -77.4669 351° North 298 343 17,900  Level Washington Center
Fri 10:35:45 AM 39.3200 -77.4642 North 313 360 20,500 2,254 Climbing Washington Center
Fri 10:38:09 AM 39.5672 -77.4583 North 364 419 25,600 1,912 Climbing New York Center
Fri 10:39:09 AM 39.6758 -77.4553 North 375 432 27,000 700 Climbing New York Center
Fri 10:40:09 AM 39.7844 -77.4547 360° North 380 437 27,000 350 Level New York Center
Fri 10:41:09 AM 39.8906 -77.4569 359° North 385 443 27,700 500 Climbing New York Center
Fri 10:42:09 AM 39.9928 -77.4936 345° North 385 443 28,000 150 Climbing New York Center
Fri 10:43:09 AM 40.0969 -77.5336 344° North 385 443 28,000  Level New York Center
Fri 10:44:09 AM 40.1867 -77.5667 344° North 385 443 28,000  Level New York Center
Fri 10:45:09 AM 40.2986 -77.6158 341° North 385 443 28,000  Level New York Center
Fri 10:46:09 AM 40.3983 -77.6558 343° North 385 443 28,000  Level New York Center
Fri 10:49:39 AM 40.7397 -77.7961 343° North 374 430 28,000  Level Cleveland Center
Fri 10:50:39 AM 40.8431 -77.8383 343° North 374 430 28,000  Level Cleveland Center
Fri 10:51:39 AM 40.9400 -77.8783 343° North 374 430 28,000  Level Cleveland Center
Fri 10:52:39 AM 41.0408 -77.9181 343° North 368 423 28,000  Level Cleveland Center
Fri 10:53:39 AM 41.1400 -77.9611 342° North 368 423 28,000  Level Cleveland Center
Fri 10:54:39 AM 41.2389 -77.9983 344° North 368 423 28,000  Level Cleveland Center
Fri 10:55:39 AM 41.3378 -78.0444 341° North 368 423 28,000  Level Cleveland Center
Fri 10:56:39 AM 41.4492 -78.0897 343° North 378 435 28,000  Level Cleveland Center
Fri 10:57:39 AM 41.5481 -78.1306 343° North 378 435 28,000 -350 Level Cleveland Center
Fri 10:58:39 AM 41.6511 -78.1739 343° North 378 435 27,300 -1,350 Descending Cleveland Center
Fri 10:59:39 AM 41.7500 -78.2175 342° North 378 435 25,300 -1,900 Descending Cleveland Center
Fri 11:00:39 AM 41.8447 -78.2586 342° North 365 420 23,500 -1,835 Descending Cleveland Center
Fri 11:01:40 AM 41.9353 -78.2972 342° North 353 406 21,600 -1,850 Descending Cleveland Center
Fri 11:02:39 AM 42.0278 -78.3358 343° North 347 399 19,800 -1,765 Descending Cleveland Center
Fri 11:03:39 AM 42.1161 -78.3744 342° North 341 392 18,100 -1,700 Descending Cleveland Center
Fri 11:04:39 AM 42.2000 -78.4081 343° North 336 387 16,400 -1,700 Descending Cleveland Center
Fri 11:05:39 AM 42.2861 -78.4444 343° North 330 380 14,700 -1,700 Descending Cleveland Center
Fri 11:06:39 AM 42.3681 -78.4811 342° North 325 374 13,000 -1,650 Descending Cleveland Center
Fri 11:07:39 AM 42.4481 -78.5150 343° North 310 357 11,400 -1,450 Descending Cleveland Center
Fri 11:08:39 AM 42.5236 -78.5464 343° North 294 338 10,100 -1,250 Descending Cleveland Center
Fri 11:09:39 AM 42.5908 -78.5753 342° North 282 325 8,900 -1,200 Descending Cleveland Center
Fri 11:10:39 AM 42.6622 -78.6039 344° North 267 307 7,700 -1,500 Descending Cleveland Center
Fri 11:11:39 AM 42.7414 -78.6072 358° North 257 296 5,900 -1,800 Descending Cleveland Center
Fri 11:12:39 AM 42.8122 -78.6050 North 257 296 4,100 -1,050 Descending Cleveland Center
Fri 11:13:39 AM 42.8853 -78.6056 360° North 251 289 3,800 -800 Descending Cleveland Center
Fri 11:14:39 AM 42.9497 -78.5978 North 251 289 2,500 -683 Descending Cleveland Center
Fri 11:16:26 AM 42.9833 -78.6667 304° West 148 170 1,900 -447 Descending Buffalo TRACON
Fri 11:17:20 AM 42.9667 -78.7000 236° Southwest 114 131 1,300 -667 Descending Buffalo TRACON

Login

Don't have an account? Register now (free) for customized features, flight alerts, and more!